KPSX

Details ICAO KPSX (PSX)
Name PALACIOS MUNI
Region United States
Timezone America/Chicago (UTC-6.0)
Plans Departing 1
Arriving 1
Stats Elevation 14 ft / 4 m (AMSL)
Location 28.727509° -96.250957°
Runways 3
Magnetic Variation 3.027° E
Sunrise 2017-12-14 13:11:24 UTC / 2017-12-14 07:11:24 Local
Sunset 2017-12-14 23:31:01 UTC / 2017-12-14 17:31:01 Local
Advertisement - Login to hide

Runways

ID Width Length Bearing (true) Bearing (mag) Surface Threshold Offset Overrun Length
08 150 ft / 46 m 4,993 ft / 1,522 m 90.22° 87.19° Concrete 0 ft / 0 m 0 ft / 0 m
13 150 ft / 46 m 5,006 ft / 1,526 m 135.35° 132.32° Concrete 0 ft / 0 m 0 ft / 0 m
17 150 ft / 46 m 5,019 ft / 1,530 m 180.21° 177.18° Concrete 0 ft / 0 m 0 ft / 0 m
26 150 ft / 46 m 4,993 ft / 1,522 m 270.23° 267.20° Concrete 0 ft / 0 m 0 ft / 0 m
31 150 ft / 46 m 5,006 ft / 1,526 m 315.36° 312.33° Concrete 0 ft / 0 m 0 ft / 0 m
35 150 ft / 46 m 5,019 ft / 1,530 m 0.21° 357.18° Concrete 0 ft / 0 m 0 ft / 0 m

Map

Weather


0- 5 10 15 20 25 30 35+ Temperature / ° C

Clouds and Precipitation
Forecast for 2017-12-15 00:00 UTC. Updated 5 minutes ago

Ground ~20,000 ft ~40,000 ft Winds

METAR

KPSX 141853Z AUTO 00000KT 10SM CLR 20/09 A2996 RMK AO2 SLP145 T02000089

TAF

Not found

Frequencies

Recorded 118.02 MHz ASOS
Unicom 122.80 MHz CTAF/UNICOM
Warning: Do not use this data for real-world aviation or navigation. No guarantee of current accuracy is given.